sensor_id;sensor_type;location;lat;lon;timestamp;P1;durP1;ratioP1;P2;durP2;ratioP2
26478;SDS011;14163;-26.142;27.992;2023-05-07T00:11:46;28.90;;;23.20;;
26478;SDS011;14163;-26.142;27.992;2023-05-07T00:14:15;25.47;;;22.40;;
26478;SDS011;14163;-26.142;27.992;2023-05-07T00:16:44;29.07;;;23.83;;
26478;SDS011;14163;-26.142;27.992;2023-05-07T00:19:13;26.57;;;22.10;;
26478;SDS011;14163;-26.142;27.992;2023-05-07T00:21:44;24.47;;;21.83;;
26478;SDS011;14163;-26.142;27.992;2023-05-07T00:24:13;24.90;;;22.30;;
26478;SDS011;14163;-26.142;27.992;2023-05-07T00:26:42;30.03;;;24.30;;
26478;SDS011;14163;-26.142;27.992;2023-05-07T00:29:13;27.73;;;23.93;;
26478;SDS011;14163;-26.142;27.992;2023-05-07T00:31:42;25.50;;;22.80;;
26478;SDS011;14163;-26.142;27.992;2023-05-07T00:34:12;29.30;;;23.50;;
26478;SDS011;14163;-26.142;27.992;2023-05-07T00:36:41;28.00;;;23.53;;
26478;SDS011;14163;-26.142;27.992;2023-05-07T00:39:10;28.20;;;22.40;;
26478;SDS011;14163;-26.142;27.992;2023-05-07T00:41:39;24.30;;;21.70;;
26478;SDS011;14163;-26.142;27.992;2023-05-07T00:44:09;28.07;;;23.63;;
26478;SDS011;14163;-26.142;27.992;2023-05-07T00:46:40;25.97;;;22.43;;
26478;SDS011;14163;-26.142;27.992;2023-05-07T00:49:10;24.83;;;22.20;;
26478;SDS011;14163;-26.142;27.992;2023-05-07T00:51:39;27.47;;;22.93;;
26478;SDS011;14163;-26.142;27.992;2023-05-07T00:54:09;27.50;;;22.30;;
26478;SDS011;14163;-26.142;27.992;2023-05-07T00:56:38;23.83;;;21.33;;
26478;SDS011;14163;-26.142;27.992;2023-05-07T00:59:08;27.33;;;22.70;;
26478;SDS011;14163;-26.142;27.992;2023-05-07T01:01:38;29.87;;;23.27;;
26478;SDS011;14163;-26.142;27.992;2023-05-07T01:04:09;27.50;;;22.87;;
26478;SDS011;14163;-26.142;27.992;2023-05-07T01:06:38;25.50;;;22.07;;
26478;SDS011;14163;-26.142;27.992;2023-05-07T01:09:08;24.60;;;21.97;;
26478;SDS011;14163;-26.142;27.992;2023-05-07T01:11:37;25.30;;;22.60;;
26478;SDS011;14163;-26.142;27.992;2023-05-07T01:14:08;25.20;;;21.30;;
26478;SDS011;14163;-26.142;27.992;2023-05-07T01:16:41;27.33;;;22.40;;
26478;SDS011;14163;-26.142;27.992;2023-05-07T01:19:11;26.63;;;22.00;;
26478;SDS011;14163;-26.142;27.992;2023-05-07T01:21:42;24.47;;;22.07;;
26478;SDS011;14163;-26.142;27.992;2023-05-07T01:24:16;25.47;;;22.50;;
26478;SDS011;14163;-26.142;27.992;2023-05-07T01:26:45;27.30;;;22.40;;
26478;SDS011;14163;-26.142;27.992;2023-05-07T01:29:14;25.60;;;21.73;;
26478;SDS011;14163;-26.142;27.992;2023-05-07T01:31:44;25.60;;;21.00;;
26478;SDS011;14163;-26.142;27.992;2023-05-07T01:34:14;24.30;;;21.70;;
26478;SDS011;14163;-26.142;27.992;2023-05-07T01:36:45;23.93;;;20.80;;
26478;SDS011;14163;-26.142;27.992;2023-05-07T01:39:17;24.23;;;21.37;;
26478;SDS011;14163;-26.142;27.992;2023-05-07T01:41:46;24.90;;;22.27;;
26478;SDS011;14163;-26.142;27.992;2023-05-07T01:44:17;24.77;;;22.17;;
26478;SDS011;14163;-26.142;27.992;2023-05-07T01:46:47;27.63;;;23.47;;
26478;SDS011;14163;-26.142;27.992;2023-05-07T01:49:17;24.57;;;21.43;;
26478;SDS011;14163;-26.142;27.992;2023-05-07T01:51:47;24.77;;;22.27;;
26478;SDS011;14163;-26.142;27.992;2023-05-07T01:54:18;26.53;;;20.17;;
26478;SDS011;14163;-26.142;27.992;2023-05-07T01:56:53;24.63;;;20.77;;
26478;SDS011;14163;-26.142;27.992;2023-05-07T01:59:24;21.47;;;19.13;;
26478;SDS011;14163;-26.142;27.992;2023-05-07T02:01:53;21.37;;;19.17;;
26478;SDS011;14163;-26.142;27.992;2023-05-07T02:04:23;22.00;;;19.70;;
26478;SDS011;14163;-26.142;27.992;2023-05-07T02:06:52;27.50;;;20.10;;
26478;SDS011;14163;-26.142;27.992;2023-05-07T02:09:23;21.80;;;19.37;;
26478;SDS011;14163;-26.142;27.992;2023-05-07T02:11:52;20.10;;;17.80;;
26478;SDS011;14163;-26.142;27.992;2023-05-07T02:14:23;22.80;;;19.50;;
26478;SDS011;14163;-26.142;27.992;2023-05-07T02:16:52;23.40;;;18.70;;
26478;SDS011;14163;-26.142;27.992;2023-05-07T02:19:21;24.90;;;19.13;;
26478;SDS011;14163;-26.142;27.992;2023-05-07T02:21:50;21.13;;;19.00;;
26478;SDS011;14163;-26.142;27.992;2023-05-07T02:24:20;21.27;;;18.90;;
26478;SDS011;14163;-26.142;27.992;2023-05-07T02:26:50;20.60;;;18.40;;
26478;SDS011;14163;-26.142;27.992;2023-05-07T02:29:20;27.80;;;18.60;;
26478;SDS011;14163;-26.142;27.992;2023-05-07T02:31:49;22.20;;;19.27;;
26478;SDS011;14163;-26.142;27.992;2023-05-07T02:34:18;25.50;;;19.10;;
26478;SDS011;14163;-26.142;27.992;2023-05-07T02:36:47;21.47;;;19.17;;
26478;SDS011;14163;-26.142;27.992;2023-05-07T02:39:17;26.67;;;19.83;;
26478;SDS011;14163;-26.142;27.992;2023-05-07T02:41:46;22.40;;;20.00;;
26478;SDS011;14163;-26.142;27.992;2023-05-07T02:44:17;24.63;;;22.03;;
26478;SDS011;14163;-26.142;27.992;2023-05-07T02:46:46;23.20;;;20.73;;
26478;SDS011;14163;-26.142;27.992;2023-05-07T02:49:18;24.03;;;21.50;;
26478;SDS011;14163;-26.142;27.992;2023-05-07T02:51:47;26.80;;;22.67;;
26478;SDS011;14163;-26.142;27.992;2023-05-07T02:54:17;23.13;;;19.80;;
26478;SDS011;14163;-26.142;27.992;2023-05-07T02:56:46;28.20;;;22.60;;
26478;SDS011;14163;-26.142;27.992;2023-05-07T02:59:15;25.10;;;22.50;;
26478;SDS011;14163;-26.142;27.992;2023-05-07T03:01:46;24.00;;;21.17;;
26478;SDS011;14163;-26.142;27.992;2023-05-07T03:04:15;24.40;;;21.53;;
26478;SDS011;14163;-26.142;27.992;2023-05-07T03:06:44;24.37;;;21.77;;
26478;SDS011;14163;-26.142;27.992;2023-05-07T03:09:13;23.83;;;21.20;;
26478;SDS011;14163;-26.142;27.992;2023-05-07T03:11:43;24.60;;;22.00;;
26478;SDS011;14163;-26.142;27.992;2023-05-07T03:14:12;24.80;;;21.53;;
26478;SDS011;14163;-26.142;27.992;2023-05-07T03:16:43;23.33;;;20.77;;
26478;SDS011;14163;-26.142;27.992;2023-05-07T03:19:12;26.20;;;22.97;;
26478;SDS011;14163;-26.142;27.992;2023-05-07T03:21:41;23.77;;;21.47;;
26478;SDS011;14163;-26.142;27.992;2023-05-07T03:24:10;24.83;;;22.20;;
26478;SDS011;14163;-26.142;27.992;2023-05-07T03:26:39;25.77;;;23.07;;
26478;SDS011;14163;-26.142;27.992;2023-05-07T03:29:09;24.27;;;21.70;;
26478;SDS011;14163;-26.142;27.992;2023-05-07T03:31:38;23.50;;;21.03;;
26478;SDS011;14163;-26.142;27.992;2023-05-07T03:34:09;23.50;;;21.03;;
26478;SDS011;14163;-26.142;27.992;2023-05-07T03:36:38;23.67;;;21.10;;
26478;SDS011;14163;-26.142;27.992;2023-05-07T03:39:07;23.13;;;20.63;;
26478;SDS011;14163;-26.142;27.992;2023-05-07T03:41:36;23.53;;;20.63;;
26478;SDS011;14163;-26.142;27.992;2023-05-07T03:44:06;23.90;;;21.40;;
26478;SDS011;14163;-26.142;27.992;2023-05-07T03:46:35;23.20;;;20.67;;
26478;SDS011;14163;-26.142;27.992;2023-05-07T03:49:04;23.63;;;20.17;;
26478;SDS011;14163;-26.142;27.992;2023-05-07T03:51:35;22.17;;;19.73;;
26478;SDS011;14163;-26.142;27.992;2023-05-07T03:54:04;23.47;;;20.80;;
26478;SDS011;14163;-26.142;27.992;2023-05-07T03:56:34;27.37;;;22.23;;
26478;SDS011;14163;-26.142;27.992;2023-05-07T03:59:04;27.67;;;22.50;;
26478;SDS011;14163;-26.142;27.992;2023-05-07T04:01:33;23.80;;;21.23;;
26478;SDS011;14163;-26.142;27.992;2023-05-07T04:04:03;28.80;;;22.00;;
26478;SDS011;14163;-26.142;27.992;2023-05-07T04:06:32;27.30;;;22.47;;
26478;SDS011;14163;-26.142;27.992;2023-05-07T04:09:03;24.83;;;20.37;;
26478;SDS011;14163;-26.142;27.992;2023-05-07T04:11:32;25.63;;;21.00;;
26478;SDS011;14163;-26.142;27.992;2023-05-07T04:14:03;22.80;;;20.40;;
26478;SDS011;14163;-26.142;27.992;2023-05-07T04:16:32;23.53;;;21.00;;
26478;SDS011;14163;-26.142;27.992;2023-05-07T04:19:03;23.60;;;19.83;;
26478;SDS011;14163;-26.142;27.992;2023-05-07T04:21:32;24.30;;;20.70;;
26478;SDS011;14163;-26.142;27.992;2023-05-07T04:24:04;25.30;;;21.70;;
26478;SDS011;14163;-26.142;27.992;2023-05-07T04:26:35;29.07;;;21.37;;
26478;SDS011;14163;-26.142;27.992;2023-05-07T04:29:05;25.20;;;22.50;;
26478;SDS011;14163;-26.142;27.992;2023-05-07T04:31:34;28.57;;;22.53;;
26478;SDS011;14163;-26.142;27.992;2023-05-07T04:34:04;24.43;;;21.43;;
26478;SDS011;14163;-26.142;27.992;2023-05-07T04:36:35;27.47;;;24.40;;
26478;SDS011;14163;-26.142;27.992;2023-05-07T04:39:04;29.60;;;23.13;;
26478;SDS011;14163;-26.142;27.992;2023-05-07T04:41:34;24.03;;;21.50;;
26478;SDS011;14163;-26.142;27.992;2023-05-07T04:44:04;26.20;;;23.27;;
26478;SDS011;14163;-26.142;27.992;2023-05-07T04:46:35;30.43;;;24.53;;
26478;SDS011;14163;-26.142;27.992;2023-05-07T04:49:04;32.13;;;26.87;;
26478;SDS011;14163;-26.142;27.992;2023-05-07T04:51:33;35.13;;;25.90;;
26478;SDS011;14163;-26.142;27.992;2023-05-07T04:54:04;33.87;;;24.03;;
26478;SDS011;14163;-26.142;27.992;2023-05-07T04:56:33;23.13;;;20.33;;
26478;SDS011;14163;-26.142;27.992;2023-05-07T04:59:02;22.40;;;20.00;;
26478;SDS011;14163;-26.142;27.992;2023-05-07T05:01:31;25.77;;;19.83;;
26478;SDS011;14163;-26.142;27.992;2023-05-07T05:04:01;21.90;;;19.53;;
26478;SDS011;14163;-26.142;27.992;2023-05-07T05:06:30;27.30;;;23.43;;
26478;SDS011;14163;-26.142;27.992;2023-05-07T05:09:01;28.40;;;23.20;;
26478;SDS011;14163;-26.142;27.992;2023-05-07T05:11:31;29.40;;;25.90;;
26478;SDS011;14163;-26.142;27.992;2023-05-07T05:14:00;33.27;;;29.00;;
26478;SDS011;14163;-26.142;27.992;2023-05-07T05:16:30;32.90;;;29.37;;
26478;SDS011;14163;-26.142;27.992;2023-05-07T05:19:01;32.47;;;28.53;;
26478;SDS011;14163;-26.142;27.992;2023-05-07T05:21:30;36.03;;;29.20;;
26478;SDS011;14163;-26.142;27.992;2023-05-07T05:24:02;35.23;;;29.53;;
26478;SDS011;14163;-26.142;27.992;2023-05-07T05:26:31;80.80;;;32.90;;
26478;SDS011;14163;-26.142;27.992;2023-05-07T05:29:01;35.53;;;29.40;;
26478;SDS011;14163;-26.142;27.992;2023-05-07T05:31:31;33.87;;;29.43;;
26478;SDS011;14163;-26.142;27.992;2023-05-07T05:34:01;34.27;;;28.37;;
26478;SDS011;14163;-26.142;27.992;2023-05-07T05:36:31;35.07;;;29.60;;
26478;SDS011;14163;-26.142;27.992;2023-05-07T05:39:03;34.07;;;30.57;;
26478;SDS011;14163;-26.142;27.992;2023-05-07T05:41:32;28.37;;;25.57;;
26478;SDS011;14163;-26.142;27.992;2023-05-07T05:44:01;29.00;;;25.30;;
26478;SDS011;14163;-26.142;27.992;2023-05-07T05:46:31;27.77;;;24.63;;
26478;SDS011;14163;-26.142;27.992;2023-05-07T05:49:00;24.50;;;22.00;;
26478;SDS011;14163;-26.142;27.992;2023-05-07T05:51:29;26.00;;;22.73;;
26478;SDS011;14163;-26.142;27.992;2023-05-07T05:53:58;25.73;;;23.13;;
26478;SDS011;14163;-26.142;27.992;2023-05-07T05:56:30;22.97;;;20.63;;
26478;SDS011;14163;-26.142;27.992;2023-05-07T05:58:59;20.47;;;18.37;;
26478;SDS011;14163;-26.142;27.992;2023-05-07T06:01:29;19.70;;;17.80;;
26478;SDS011;14163;-26.142;27.992;2023-05-07T08:14:38;6.43;;;5.83;;
26478;SDS011;14163;-26.142;27.992;2023-05-07T08:19:48;6.60;;;6.00;;
26478;SDS011;14163;-26.142;27.992;2023-05-07T08:24:51;8.80;;;7.57;;
26478;SDS011;14163;-26.142;27.992;2023-05-07T08:27:20;7.47;;;6.87;;
26478;SDS011;14163;-26.142;27.992;2023-05-07T08:29:50;9.83;;;7.80;;
26478;SDS011;14163;-26.142;27.992;2023-05-07T08:32:19;8.80;;;7.40;;
26478;SDS011;14163;-26.142;27.992;2023-05-07T08:34:49;7.20;;;6.60;;
26478;SDS011;14163;-26.142;27.992;2023-05-07T08:37:19;7.80;;;7.10;;
26478;SDS011;14163;-26.142;27.992;2023-05-07T08:39:50;9.00;;;8.20;;
26478;SDS011;14163;-26.142;27.992;2023-05-07T08:44:54;8.33;;;7.53;;
26478;SDS011;14163;-26.142;27.992;2023-05-07T08:50:02;6.97;;;6.40;;
26478;SDS011;14163;-26.142;27.992;2023-05-07T08:52:33;7.30;;;6.70;;
26478;SDS011;14163;-26.142;27.992;2023-05-07T08:55:05;7.20;;;6.60;;
26478;SDS011;14163;-26.142;27.992;2023-05-07T08:57:36;7.20;;;6.60;;
26478;SDS011;14163;-26.142;27.992;2023-05-07T09:00:07;6.70;;;6.20;;
26478;SDS011;14163;-26.142;27.992;2023-05-07T09:02:36;7.93;;;7.23;;
26478;SDS011;14163;-26.142;27.992;2023-05-07T09:05:06;9.27;;;8.47;;
26478;SDS011;14163;-26.142;27.992;2023-05-07T09:07:36;9.07;;;8.17;;
26478;SDS011;14163;-26.142;27.992;2023-05-07T09:10:08;10.00;;;8.10;;
26478;SDS011;14163;-26.142;27.992;2023-05-07T09:12:37;9.03;;;8.13;;
26478;SDS011;14163;-26.142;27.992;2023-05-07T09:15:07;9.23;;;8.13;;
26478;SDS011;14163;-26.142;27.992;2023-05-07T09:17:37;8.70;;;7.83;;
26478;SDS011;14163;-26.142;27.992;2023-05-07T09:20:07;10.90;;;9.80;;
26478;SDS011;14163;-26.142;27.992;2023-05-07T09:22:36;11.70;;;9.23;;
26478;SDS011;14163;-26.142;27.992;2023-05-07T09:25:08;9.87;;;8.27;;
26478;SDS011;14163;-26.142;27.992;2023-05-07T09:27:37;10.07;;;8.23;;
26478;SDS011;14163;-26.142;27.992;2023-05-07T09:30:07;8.60;;;7.80;;
26478;SDS011;14163;-26.142;27.992;2023-05-07T09:32:37;8.10;;;7.40;;
26478;SDS011;14163;-26.142;27.992;2023-05-07T09:35:08;7.10;;;6.50;;
26478;SDS011;14163;-26.142;27.992;2023-05-07T09:37:43;6.73;;;6.13;;
26478;SDS011;14163;-26.142;27.992;2023-05-07T09:40:21;8.30;;;6.90;;
26478;SDS011;14163;-26.142;27.992;2023-05-07T09:42:51;7.13;;;6.53;;
26478;SDS011;14163;-26.142;27.992;2023-05-07T09:45:25;7.03;;;6.43;;
26478;SDS011;14163;-26.142;27.992;2023-05-07T09:47:56;7.80;;;7.00;;
26478;SDS011;14163;-26.142;27.992;2023-05-07T09:50:26;7.70;;;7.00;;
26478;SDS011;14163;-26.142;27.992;2023-05-07T09:52:57;8.60;;;7.60;;
26478;SDS011;14163;-26.142;27.992;2023-05-07T09:55:28;7.73;;;7.10;;
26478;SDS011;14163;-26.142;27.992;2023-05-07T09:57:59;8.17;;;7.40;;
26478;SDS011;14163;-26.142;27.992;2023-05-07T10:00:29;7.90;;;7.20;;
26478;SDS011;14163;-26.142;27.992;2023-05-07T10:03:00;9.63;;;8.00;;
26478;SDS011;14163;-26.142;27.992;2023-05-07T10:05:30;8.27;;;7.50;;
26478;SDS011;14163;-26.142;27.992;2023-05-07T10:08:00;8.47;;;7.67;;
26478;SDS011;14163;-26.142;27.992;2023-05-07T10:10:32;9.03;;;7.97;;
26478;SDS011;14163;-26.142;27.992;2023-05-07T10:13:01;8.57;;;7.77;;
26478;SDS011;14163;-26.142;27.992;2023-05-07T10:15:35;8.13;;;6.97;;
26478;SDS011;14163;-26.142;27.992;2023-05-07T10:18:05;8.93;;;8.13;;
26478;SDS011;14163;-26.142;27.992;2023-05-07T10:20:36;8.70;;;7.80;;
26478;SDS011;14163;-26.142;27.992;2023-05-07T10:23:06;9.20;;;8.30;;
26478;SDS011;14163;-26.142;27.992;2023-05-07T10:25:42;8.50;;;7.73;;
26478;SDS011;14163;-26.142;27.992;2023-05-07T10:28:11;8.37;;;7.67;;
26478;SDS011;14163;-26.142;27.992;2023-05-07T10:30:46;9.23;;;8.07;;
26478;SDS011;14163;-26.142;27.992;2023-05-07T10:33:27;8.90;;;8.10;;
26478;SDS011;14163;-26.142;27.992;2023-05-07T10:35:58;8.83;;;7.97;;
26478;SDS011;14163;-26.142;27.992;2023-05-07T10:38:30;7.97;;;7.37;;
26478;SDS011;14163;-26.142;27.992;2023-05-07T10:41:01;10.20;;;7.70;;
26478;SDS011;14163;-26.142;27.992;2023-05-07T10:43:41;8.27;;;7.60;;
26478;SDS011;14163;-26.142;27.992;2023-05-07T10:46:11;9.27;;;8.37;;
26478;SDS011;14163;-26.142;27.992;2023-05-07T10:51:39;7.87;;;7.27;;
26478;SDS011;14163;-26.142;27.992;2023-05-07T10:54:23;8.93;;;8.03;;
26478;SDS011;14163;-26.142;27.992;2023-05-07T10:56:55;9.33;;;8.53;;
26478;SDS011;14163;-26.142;27.992;2023-05-07T10:59:30;8.47;;;7.67;;
26478;SDS011;14163;-26.142;27.992;2023-05-07T11:02:08;7.77;;;7.17;;
26478;SDS011;14163;-26.142;27.992;2023-05-07T11:04:39;8.60;;;7.90;;
26478;SDS011;14163;-26.142;27.992;2023-05-07T11:09:56;8.00;;;7.30;;
26478;SDS011;14163;-26.142;27.992;2023-05-07T11:15:41;7.27;;;6.67;;
26478;SDS011;14163;-26.142;27.992;2023-05-07T11:18:14;7.10;;;6.53;;
26478;SDS011;14163;-26.142;27.992;2023-05-07T11:20:54;7.20;;;6.60;;
26478;SDS011;14163;-26.142;27.992;2023-05-07T11:26:24;7.27;;;6.67;;
26478;SDS011;14163;-26.142;27.992;2023-05-07T11:28:55;7.40;;;6.70;;
26478;SDS011;14163;-26.142;27.992;2023-05-07T11:31:26;9.90;;;7.27;;
26478;SDS011;14163;-26.142;27.992;2023-05-07T11:33:55;7.33;;;6.73;;
26478;SDS011;14163;-26.142;27.992;2023-05-07T11:36:30;8.37;;;7.60;;
26478;SDS011;14163;-26.142;27.992;2023-05-07T11:39:00;8.43;;;7.37;;
26478;SDS011;14163;-26.142;27.992;2023-05-07T11:41:35;7.50;;;6.90;;
26478;SDS011;14163;-26.142;27.992;2023-05-07T11:44:06;7.23;;;6.50;;
26478;SDS011;14163;-26.142;27.992;2023-05-07T11:46:35;9.73;;;7.13;;
26478;SDS011;14163;-26.142;27.992;2023-05-07T11:49:05;8.00;;;7.30;;
26478;SDS011;14163;-26.142;27.992;2023-05-07T11:51:34;7.20;;;6.67;;
26478;SDS011;14163;-26.142;27.992;2023-05-07T11:54:04;7.70;;;7.00;;
26478;SDS011;14163;-26.142;27.992;2023-05-07T11:56:34;8.70;;;7.90;;
26478;SDS011;14163;-26.142;27.992;2023-05-07T11:59:04;8.13;;;7.37;;
26478;SDS011;14163;-26.142;27.992;2023-05-07T12:01:35;8.07;;;7.37;;
26478;SDS011;14163;-26.142;27.992;2023-05-07T12:04:05;8.80;;;8.10;;
26478;SDS011;14163;-26.142;27.992;2023-05-07T12:06:36;10.07;;;9.07;;
26478;SDS011;14163;-26.142;27.992;2023-05-07T12:09:06;9.40;;;8.50;;
26478;SDS011;14163;-26.142;27.992;2023-05-07T12:11:37;11.63;;;8.57;;
26478;SDS011;14163;-26.142;27.992;2023-05-07T12:14:08;8.63;;;7.83;;
26478;SDS011;14163;-26.142;27.992;2023-05-07T12:16:38;9.40;;;8.40;;
26478;SDS011;14163;-26.142;27.992;2023-05-07T12:19:08;9.17;;;8.37;;
26478;SDS011;14163;-26.142;27.992;2023-05-07T12:21:39;9.80;;;8.90;;
26478;SDS011;14163;-26.142;27.992;2023-05-07T12:24:09;10.00;;;9.10;;
26478;SDS011;14163;-26.142;27.992;2023-05-07T12:26:38;8.90;;;8.00;;
26478;SDS011;14163;-26.142;27.992;2023-05-07T12:29:10;9.37;;;8.37;;
26478;SDS011;14163;-26.142;27.992;2023-05-07T12:31:40;9.27;;;8.47;;
26478;SDS011;14163;-26.142;27.992;2023-05-07T12:34:10;9.30;;;8.50;;
26478;SDS011;14163;-26.142;27.992;2023-05-07T12:36:40;9.30;;;8.43;;
26478;SDS011;14163;-26.142;27.992;2023-05-07T12:39:09;10.43;;;9.50;;
26478;SDS011;14163;-26.142;27.992;2023-05-07T12:41:53;10.20;;;9.23;;
26478;SDS011;14163;-26.142;27.992;2023-05-07T12:44:28;10.83;;;9.10;;
26478;SDS011;14163;-26.142;27.992;2023-05-07T12:47:01;11.60;;;10.50;;
26478;SDS011;14163;-26.142;27.992;2023-05-07T12:49:31;11.13;;;10.13;;
26478;SDS011;14163;-26.142;27.992;2023-05-07T12:52:04;10.83;;;9.73;;
26478;SDS011;14163;-26.142;27.992;2023-05-07T12:54:35;11.80;;;10.80;;
26478;SDS011;14163;-26.142;27.992;2023-05-07T12:57:06;10.90;;;9.90;;
26478;SDS011;14163;-26.142;27.992;2023-05-07T12:59:37;11.80;;;10.60;;
26478;SDS011;14163;-26.142;27.992;2023-05-07T13:02:07;10.87;;;9.97;;
26478;SDS011;14163;-26.142;27.992;2023-05-07T13:04:37;10.27;;;9.37;;
26478;SDS011;14163;-26.142;27.992;2023-05-07T13:07:06;14.07;;;12.87;;
26478;SDS011;14163;-26.142;27.992;2023-05-07T13:09:35;13.83;;;12.40;;
26478;SDS011;14163;-26.142;27.992;2023-05-07T13:12:05;11.00;;;10.00;;
26478;SDS011;14163;-26.142;27.992;2023-05-07T13:14:34;19.10;;;12.00;;
26478;SDS011;14163;-26.142;27.992;2023-05-07T13:17:05;11.20;;;10.10;;
26478;SDS011;14163;-26.142;27.992;2023-05-07T13:19:34;11.03;;;10.03;;
26478;SDS011;14163;-26.142;27.992;2023-05-07T13:22:05;11.30;;;9.80;;
26478;SDS011;14163;-26.142;27.992;2023-05-07T13:24:34;11.70;;;10.60;;
26478;SDS011;14163;-26.142;27.992;2023-05-07T13:27:03;11.90;;;10.80;;
26478;SDS011;14163;-26.142;27.992;2023-05-07T13:29:32;11.57;;;9.97;;
26478;SDS011;14163;-26.142;27.992;2023-05-07T13:32:04;11.00;;;9.97;;
26478;SDS011;14163;-26.142;27.992;2023-05-07T13:34:33;10.67;;;9.77;;
26478;SDS011;14163;-26.142;27.992;2023-05-07T13:37:02;10.80;;;9.90;;
26478;SDS011;14163;-26.142;27.992;2023-05-07T13:39:33;10.10;;;9.20;;
26478;SDS011;14163;-26.142;27.992;2023-05-07T13:42:03;11.30;;;9.63;;
26478;SDS011;14163;-26.142;27.992;2023-05-07T13:44:32;13.33;;;12.03;;
26478;SDS011;14163;-26.142;27.992;2023-05-07T13:47:04;10.20;;;9.33;;
26478;SDS011;14163;-26.142;27.992;2023-05-07T13:49:33;11.57;;;10.47;;
26478;SDS011;14163;-26.142;27.992;2023-05-07T13:52:03;11.73;;;10.53;;
26478;SDS011;14163;-26.142;27.992;2023-05-07T13:54:32;11.10;;;10.00;;
26478;SDS011;14163;-26.142;27.992;2023-05-07T13:57:01;10.60;;;9.70;;
26478;SDS011;14163;-26.142;27.992;2023-05-07T13:59:31;10.10;;;9.20;;
26478;SDS011;14163;-26.142;27.992;2023-05-07T14:04:54;11.73;;;10.30;;
26478;SDS011;14163;-26.142;27.992;2023-05-07T14:07:23;10.57;;;9.53;;
26478;SDS011;14163;-26.142;27.992;2023-05-07T14:09:52;9.50;;;8.60;;
26478;SDS011;14163;-26.142;27.992;2023-05-07T14:12:22;9.23;;;8.43;;
26478;SDS011;14163;-26.142;27.992;2023-05-07T14:14:51;7.90;;;7.20;;
26478;SDS011;14163;-26.142;27.992;2023-05-07T14:17:20;10.10;;;7.70;;
26478;SDS011;14163;-26.142;27.992;2023-05-07T14:19:52;9.43;;;8.07;;
26478;SDS011;14163;-26.142;27.992;2023-05-07T14:22:23;8.73;;;7.93;;
26478;SDS011;14163;-26.142;27.992;2023-05-07T14:24:52;7.90;;;7.20;;
26478;SDS011;14163;-26.142;27.992;2023-05-07T14:27:21;8.20;;;7.40;;
26478;SDS011;14163;-26.142;27.992;2023-05-07T14:29:50;6.90;;;6.40;;
26478;SDS011;14163;-26.142;27.992;2023-05-07T14:32:20;8.67;;;7.90;;
26478;SDS011;14163;-26.142;27.992;2023-05-07T14:34:49;8.00;;;7.30;;
26478;SDS011;14163;-26.142;27.992;2023-05-07T14:37:20;7.20;;;6.50;;
26478;SDS011;14163;-26.142;27.992;2023-05-07T14:39:50;6.20;;;5.80;;
26478;SDS011;14163;-26.142;27.992;2023-05-07T14:42:19;8.80;;;6.67;;
26478;SDS011;14163;-26.142;27.992;2023-05-07T14:44:48;6.50;;;5.90;;
26478;SDS011;14163;-26.142;27.992;2023-05-07T14:47:18;5.97;;;5.47;;
26478;SDS011;14163;-26.142;27.992;2023-05-07T14:49:47;5.73;;;5.23;;
26478;SDS011;14163;-26.142;27.992;2023-05-07T14:52:17;6.37;;;5.40;;
26478;SDS011;14163;-26.142;27.992;2023-05-07T14:54:47;5.30;;;4.80;;
26478;SDS011;14163;-26.142;27.992;2023-05-07T14:57:17;4.90;;;4.57;;
26478;SDS011;14163;-26.142;27.992;2023-05-07T14:59:46;5.83;;;5.43;;
26478;SDS011;14163;-26.142;27.992;2023-05-07T15:02:17;5.07;;;4.67;;
26478;SDS011;14163;-26.142;27.992;2023-05-07T15:04:46;5.37;;;4.97;;
26478;SDS011;14163;-26.142;27.992;2023-05-07T15:07:16;5.30;;;4.90;;
26478;SDS011;14163;-26.142;27.992;2023-05-07T15:09:47;6.10;;;5.63;;
26478;SDS011;14163;-26.142;27.992;2023-05-07T15:12:16;6.10;;;5.57;;
26478;SDS011;14163;-26.142;27.992;2023-05-07T15:14:45;5.90;;;5.40;;
26478;SDS011;14163;-26.142;27.992;2023-05-07T15:17:15;7.40;;;6.27;;
26478;SDS011;14163;-26.142;27.992;2023-05-07T15:19:44;6.10;;;5.60;;
26478;SDS011;14163;-26.142;27.992;2023-05-07T15:22:13;5.83;;;5.33;;
26478;SDS011;14163;-26.142;27.992;2023-05-07T15:24:42;5.80;;;5.40;;
26478;SDS011;14163;-26.142;27.992;2023-05-07T15:27:13;5.67;;;5.27;;
26478;SDS011;14163;-26.142;27.992;2023-05-07T15:29:44;5.50;;;5.10;;
26478;SDS011;14163;-26.142;27.992;2023-05-07T15:32:13;5.70;;;5.30;;
26478;SDS011;14163;-26.142;27.992;2023-05-07T15:34:42;4.80;;;4.50;;
26478;SDS011;14163;-26.142;27.992;2023-05-07T15:37:11;5.97;;;5.50;;
26478;SDS011;14163;-26.142;27.992;2023-05-07T15:39:40;4.50;;;4.20;;
26478;SDS011;14163;-26.142;27.992;2023-05-07T15:42:11;5.73;;;5.17;;
26478;SDS011;14163;-26.142;27.992;2023-05-07T15:44:42;5.87;;;5.47;;
26478;SDS011;14163;-26.142;27.992;2023-05-07T15:47:12;6.03;;;5.43;;
26478;SDS011;14163;-26.142;27.992;2023-05-07T15:49:41;6.40;;;5.80;;
26478;SDS011;14163;-26.142;27.992;2023-05-07T15:52:10;5.70;;;5.30;;
26478;SDS011;14163;-26.142;27.992;2023-05-07T15:54:40;5.03;;;4.63;;
26478;SDS011;14163;-26.142;27.992;2023-05-07T15:57:09;4.40;;;4.10;;
26478;SDS011;14163;-26.142;27.992;2023-05-07T15:59:40;4.10;;;3.90;;
26478;SDS011;14163;-26.142;27.992;2023-05-07T16:02:09;4.70;;;4.40;;
26478;SDS011;14163;-26.142;27.992;2023-05-07T16:04:39;4.53;;;4.23;;
26478;SDS011;14163;-26.142;27.992;2023-05-07T16:07:08;4.40;;;4.10;;
26478;SDS011;14163;-26.142;27.992;2023-05-07T16:09:37;5.10;;;4.60;;
26478;SDS011;14163;-26.142;27.992;2023-05-07T16:12:07;3.73;;;3.53;;
26478;SDS011;14163;-26.142;27.992;2023-05-07T16:14:36;4.30;;;4.00;;
26478;SDS011;14163;-26.142;27.992;2023-05-07T16:17:08;4.93;;;4.00;;
26478;SDS011;14163;-26.142;27.992;2023-05-07T16:19:37;4.00;;;3.70;;
26478;SDS011;14163;-26.142;27.992;2023-05-07T16:22:06;4.53;;;4.23;;
26478;SDS011;14163;-26.142;27.992;2023-05-07T16:24:36;6.50;;;5.03;;
26478;SDS011;14163;-26.142;27.992;2023-05-07T16:27:05;5.93;;;4.87;;
26478;SDS011;14163;-26.142;27.992;2023-05-07T16:29:34;5.23;;;4.73;;
26478;SDS011;14163;-26.142;27.992;2023-05-07T16:32:04;11.80;;;6.53;;
26478;SDS011;14163;-26.142;27.992;2023-05-07T16:34:35;8.13;;;6.57;;
26478;SDS011;14163;-26.142;27.992;2023-05-07T16:37:04;10.13;;;8.70;;
26478;SDS011;14163;-26.142;27.992;2023-05-07T16:39:34;9.57;;;8.67;;
26478;SDS011;14163;-26.142;27.992;2023-05-07T16:42:05;10.80;;;8.93;;
26478;SDS011;14163;-26.142;27.992;2023-05-07T16:44:35;9.13;;;8.23;;
26478;SDS011;14163;-26.142;27.992;2023-05-07T16:47:04;8.80;;;7.90;;
26478;SDS011;14163;-26.142;27.992;2023-05-07T16:49:35;9.03;;;8.20;;
26478;SDS011;14163;-26.142;27.992;2023-05-07T16:52:04;9.03;;;8.10;;
26478;SDS011;14163;-26.142;27.992;2023-05-07T16:54:34;9.13;;;6.70;;
26478;SDS011;14163;-26.142;27.992;2023-05-07T16:57:03;9.40;;;7.00;;
26478;SDS011;14163;-26.142;27.992;2023-05-07T16:59:32;7.33;;;6.73;;
26478;SDS011;14163;-26.142;27.992;2023-05-07T18:14:04;6.40;;;5.80;;
26478;SDS011;14163;-26.142;27.992;2023-05-07T18:16:33;4.73;;;4.33;;
26478;SDS011;14163;-26.142;27.992;2023-05-07T18:19:02;4.70;;;4.30;;
26478;SDS011;14163;-26.142;27.992;2023-05-07T18:21:31;5.40;;;4.90;;
26478;SDS011;14163;-26.142;27.992;2023-05-07T18:24:01;5.53;;;5.03;;